Time;durP1;ratioP1;P1;durP2;ratioP2;P2;SDS_P1;SDS_P2;PMS_P1;PMS_P2;Temp;Humidity;BMP_temperature;BMP_pressure;BME280_temperature;BME280_humidity;BME280_pressure;Samples;Min_cycle;Max_cycle;Signal;HPM_P1;HPM_P2
2021/01/22 00:00:18;;;;;;;13.98;4.55;;;4.80;99.90;;;;;;4819956;29;20058;-84
2021/01/22 00:02:48;;;;;;;11.27;4.45;;;;;;;;;;4834770;29;20064;-84
2021/01/22 00:05:18;;;;;;;11.75;3.67;;;;;;;;;;4846195;29;20054;-85
2021/01/22 00:07:49;;;;;;;7.65;3.80;;;4.70;99.90;;;;;;4843805;29;20061;-85
2021/01/22 00:10:30;;;;;;;6.72;2.38;;;4.50;99.90;;;;;;4841364;29;20047;-86
2021/01/22 00:13:21;;;;;;;9.23;2.90;;;;;;;;;;4841388;29;20058;-91
2021/01/22 00:15:57;;;;;;;7.00;3.28;;;;;;;;;;4835784;29;20061;-84
2021/01/22 00:18:29;;;;;;;12.77;5.68;;;;;;;;;;4817886;29;20442;-86
2021/01/22 00:21:01;;;;;;;4.40;3.53;;;;;;;;;;4822948;29;20057;-83
2021/01/22 00:23:31;;;;;;;6.60;4.32;;;;;;;;;;4838140;29;20058;-84
2021/01/22 00:26:07;;;;;;;9.43;4.30;;;4.40;99.90;;;;;;4819342;29;20053;-84
2021/01/22 00:28:37;;;;;;;13.45;3.30;;;4.40;99.90;;;;;;4840833;29;20057;-87
2021/01/22 00:31:08;;;;;;;7.95;3.50;;;;;;;;;;4840347;29;20049;-84
2021/01/22 00:33:38;;;;;;;7.32;2.95;;;;;;;;;;4836847;29;20065;-86
2021/01/22 00:36:08;;;;;;;10.98;3.33;;;;;;;;;;4841146;29;20050;-88
2021/01/22 00:38:42;;;;;;;5.10;2.90;;;;;;;;;;4848497;29;20057;-86
2021/01/22 00:41:11;;;;;;;6.07;2.83;;;;;;;;;;4840972;29;20054;-92
2021/01/22 00:43:40;;;;;;;6.45;3.13;;;4.00;99.90;;;;;;4830060;29;20050;-86
2021/01/22 00:46:10;;;;;;;6.90;2.92;;;4.30;99.90;;;;;;4826861;29;20054;-87
2021/01/22 00:48:42;;;;;;;4.43;2.75;;;;;;;;;;4851643;29;20056;-84
2021/01/22 00:51:15;;;;;;;3.33;2.30;;;;;;;;;;4840432;29;20068;-87
2021/01/22 00:53:45;;;;;;;9.82;3.72;;;4.10;99.90;;;;;;4845449;29;20073;-86
2021/01/22 00:56:18;;;;;;;15.40;4.28;;;;;;;;;;4838351;29;20046;-86
2021/01/22 00:58:56;;;;;;;7.38;3.17;;;;;;;;;;4792879;29;20054;-87
2021/01/22 01:01:34;;;;;;;4.53;2.63;;;;;;;;;;4819216;29;20066;-87
2021/01/22 01:04:05;;;;;;;10.73;4.07;;;;;;;;;;4809915;29;20054;-86
2021/01/22 01:06:52;;;;;;;8.52;3.38;;;3.90;99.90;;;;;;4828757;29;20062;-83
2021/01/22 01:09:24;;;;;;;5.38;2.47;;;4.10;99.90;;;;;;4836241;29;20062;-83
2021/01/22 01:12:35;;;;;;;5.95;2.95;;;4.00;99.90;;;;;;4764849;30;20056;-83
2021/01/22 01:15:31;;;;;;;5.70;3.00;;;;;;;;;;4737286;30;20458;-88
2021/01/22 01:18:03;;;;;;;9.48;3.13;;;4.00;99.90;;;;;;4771836;29;20058;-84
2021/01/22 01:20:33;;;;;;;6.20;2.58;;;;;;;;;;4819076;29;20046;-85
2021/01/22 01:23:02;;;;;;;5.07;2.53;;;;;;;;;;4795597;29;20540;-83
2021/01/22 01:25:34;;;;;;;10.38;3.33;;;;;;;;;;4814841;29;20053;-84
2021/01/22 01:28:04;;;;;;;9.25;3.28;;;4.10;99.90;;;;;;4844457;29;20072;-86
2021/01/22 01:30:36;;;;;;;10.52;3.17;;;;;;;;;;4818057;29;20073;-88
2021/01/22 01:33:11;;;;;;;10.77;4.19;;;3.70;99.90;;;;;;4484434;29;10000363;-83
2021/01/22 01:35:44;;;;;;;4.00;2.67;;;;;;;;;;4828560;29;20057;-85
2021/01/22 01:38:16;;;;;;;7.25;2.90;;;;;;;;;;4830608;29;20062;-86
2021/01/22 01:40:49;;;;;;;6.28;4.03;;;3.60;99.90;;;;;;4831921;29;20057;-84
2021/01/22 01:43:34;;;;;;;6.43;2.97;;;;;;;;;;4816254;29;20083;-85
2021/01/22 01:46:07;;;;;;;7.78;4.03;;;;;;;;;;4821644;29;20055;-84
2021/01/22 01:48:38;;;;;;;5.18;2.92;;;;;;;;;;4836714;29;20138;-84
2021/01/22 01:51:07;;;;;;;9.68;3.58;;;3.80;99.90;;;;;;4833631;29;20055;-88
2021/01/22 01:53:36;;;;;;;6.68;2.60;;;;;;;;;;4836942;29;20066;-85
2021/01/22 01:56:11;;;;;;;9.65;3.75;;;;;;;;;;4855860;29;20061;-83
2021/01/22 01:58:42;;;;;;;7.38;2.95;;;;;;;;;;4837734;29;20058;-85
2021/01/22 02:01:13;;;;;;;11.43;3.80;;;3.60;99.90;;;;;;4834434;29;20068;-83
2021/01/22 02:03:41;;;;;;;8.80;2.83;;;;;;;;;;4853592;29;20061;-84
2021/01/22 02:06:10;;;;;;;7.20;3.17;;;;;;;;;;4835380;29;20050;-83
2021/01/22 02:08:43;;;;;;;7.72;2.85;;;;;;;;;;4848591;29;20058;-83
2021/01/22 02:11:16;;;;;;;7.38;3.05;;;3.60;99.90;;;;;;4825270;29;20058;-84
2021/01/22 02:13:46;;;;;;;;;;;3.40;99.90;;;;;;4841152;29;20066;-83
2021/01/22 02:16:17;;;;;;;9.35;3.63;;;3.50;99.90;;;;;;4839814;29;20286;-83
2021/01/22 02:18:46;;;;;;;6.38;4.18;;;3.50;99.90;;;;;;4843321;29;20065;-83
2021/01/22 02:21:32;;;;;;;11.45;3.28;;;3.50;99.90;;;;;;4841122;29;20161;-83
2021/01/22 02:24:14;;;;;;;15.02;3.20;;;3.40;99.90;;;;;;4811362;29;20068;-84
2021/01/22 02:26:59;;;;;;;9.90;3.08;;;3.40;99.90;;;;;;4806323;24;20074;-84
2021/01/22 02:29:33;;;;;;;6.38;2.70;;;3.50;99.90;;;;;;4780668;29;20507;-83
2021/01/22 02:32:06;;;;;;;10.88;4.93;;;3.40;99.90;;;;;;4758422;29;20062;-85
2021/01/22 02:34:44;;;;;;;12.32;3.20;;;3.40;99.90;;;;;;4791288;29;20488;-85
2021/01/22 02:37:23;;;;;;;11.70;3.92;;;3.30;99.90;;;;;;4776752;29;20062;-84
2021/01/22 02:39:57;;;;;;;28.20;3.92;;;3.30;99.90;;;;;;4792486;29;20063;-85
2021/01/22 02:42:31;;;;;;;13.48;3.70;;;3.40;99.90;;;;;;4802653;29;20059;-84
2021/01/22 02:45:02;;;;;;;11.25;3.95;;;3.40;99.90;;;;;;4791402;29;20097;-84
2021/01/22 02:47:31;;;;;;;10.98;5.10;;;;;;;;;;4792037;29;20496;-84
2021/01/22 02:49:59;;;;;;;6.70;2.92;;;;;;;;;;4805033;29;20059;-91
2021/01/22 02:52:29;;;;;;;5.18;2.15;;;;;;;;;;4821020;29;20526;-84
2021/01/22 02:54:58;;;;;;;3.95;2.38;;;;;;;;;;4810414;29;20427;-83
2021/01/22 02:57:58;;;;;;;;;;;3.30;99.90;;;;;;4800787;29;20062;-84
2021/01/22 03:00:33;;;;;;;6.63;3.03;;;3.40;99.90;;;;;;4744076;30;20353;-84
2021/01/22 03:03:15;;;;;;;4.75;2.75;;;3.30;99.90;;;;;;4809894;29;20066;-85
2021/01/22 03:05:47;;;;;;;6.00;3.50;;;3.40;99.90;;;;;;4794862;29;20058;-82
2021/01/22 03:08:17;;;;;;;5.90;2.70;;;3.20;99.90;;;;;;4800305;29;20062;-84
2021/01/22 03:10:48;;;;;;;17.42;5.88;;;3.20;99.90;;;;;;4820338;29;20051;-85
2021/01/22 03:13:18;;;;;;;9.38;3.40;;;;;;;;;;4797121;29;20058;-86
2021/01/22 03:15:49;;;;;;;9.55;3.35;;;;;;;;;;4782411;29;20047;-83
2021/01/22 03:18:24;;;;;;;14.73;2.60;;;3.20;99.90;;;;;;4795855;29;20066;-86
2021/01/22 03:20:53;;;;;;;6.00;2.40;;;;;;;;;;4796732;29;20053;-84
2021/01/22 03:23:20;;;;;;;11.98;3.00;;;;;;;;;;4813499;29;20073;-84
2021/01/22 03:25:50;;;;;;;3.92;3.13;;;;;;;;;;4794987;29;20059;-85
2021/01/22 03:28:19;;;;;;;7.63;4.07;;;3.10;99.90;;;;;;4791574;29;20524;-85
2021/01/22 03:30:49;;;;;;;5.93;2.92;;;;;;;;;;4808620;29;20055;-84
2021/01/22 03:33:21;;;;;;;9.68;3.78;;;3.10;99.90;;;;;;4784914;30;20047;-85
2021/01/22 03:35:48;;;;;;;8.57;4.00;;;;;;;;;;4798879;29;20066;-84
2021/01/22 03:38:17;;;;;;;5.53;2.63;;;;;;;;;;4793783;29;20090;-85
2021/01/22 03:40:47;;;;;;;8.15;2.92;;;;;;;;;;4794960;29;20047;-85
2021/01/22 03:43:15;;;;;;;5.03;2.70;;;;;;;;;;4802882;29;20055;-85
2021/01/22 03:45:42;;;;;;;2.80;2.42;;;;;;;;;;4798596;29;20059;-84
2021/01/22 03:48:14;;;;;;;7.00;4.10;;;;;;;;;;4795741;29;20051;-85
2021/01/22 03:50:44;;;;;;;9.10;3.58;;;;;;;;;;4794914;29;20066;-84
2021/01/22 03:53:13;;;;;;;5.15;2.90;;;;;;;;;;4794472;29;20062;-87
2021/01/22 03:55:56;;;;;;;4.35;3.95;;;;;;;;;;4796696;29;20063;-83
2021/01/22 03:58:24;;;;;;;4.22;3.42;;;;;;;;;;4791573;30;20059;-92
2021/01/22 04:00:56;;;;;;;11.20;4.95;;;;;;;;;;4807938;29;20063;-89
2021/01/22 04:03:24;;;;;;;5.93;3.00;;;;;;;;;;4796935;29;20059;-86
2021/01/22 04:05:56;;;;;;;4.22;2.63;;;;;;;;;;4795603;29;20071;-88
2021/01/22 04:08:28;;;;;;;6.75;2.75;;;2.90;99.90;;;;;;4796943;29;20067;-85
2021/01/22 04:11:02;;;;;;;4.07;3.00;;;;;;;;;;4795365;29;20767;-86
2021/01/22 04:13:30;;;;;;;6.50;2.95;;;;;;;;;;4783785;29;20063;-86
2021/01/22 04:15:59;;;;;;;6.47;2.90;;;;;;;;;;4795290;29;20420;-88
2021/01/22 04:18:30;;;;;;;;;;;2.70;99.90;;;;;;4778853;29;20070;-86
2021/01/22 04:21:04;;;;;;;5.43;3.13;;;2.80;99.90;;;;;;4796980;29;19926;-84
2021/01/22 04:23:32;;;;;;;14.38;2.88;;;;;;;;;;4797282;29;20056;-83
2021/01/22 04:26:00;;;;;;;7.55;4.38;;;;;;;;;;4810123;29;20081;-87
2021/01/22 04:28:31;;;;;;;5.38;3.17;;;2.70;99.90;;;;;;4830613;29;20078;-85
2021/01/22 04:30:59;;;;;;;5.07;2.65;;;;;;;;;;4830269;29;20046;-88
2021/01/22 04:33:28;;;;;;;7.18;3.20;;;;;;;;;;4832300;24;20114;-85
2021/01/22 04:35:56;;;;;;;6.43;2.42;;;;;;;;;;4849932;29;20080;-86
2021/01/22 04:38:24;;;;;;;10.00;2.85;;;;;;;;;;4833823;29;20054;-87
2021/01/22 04:40:57;;;;;;;7.40;3.00;;;2.70;99.90;;;;;;4836331;29;20086;-85
2021/01/22 04:43:29;;;;;;;5.40;3.65;;;2.80;99.90;;;;;;4836760;29;20205;-88
2021/01/22 04:45:58;;;;;;;7.30;3.25;;;;;;;;;;4823694;29;20053;-86
2021/01/22 04:48:28;;;;;;;3.97;2.38;;;2.80;99.90;;;;;;4852798;29;20073;-87
2021/01/22 04:50:59;;;;;;;13.50;4.47;;;2.70;99.90;;;;;;4855410;29;20054;-85
2021/01/22 04:53:31;;;;;;;5.68;2.78;;;2.60;99.90;;;;;;4853701;29;20070;-87
2021/01/22 04:56:00;;;;;;;8.77;3.92;;;2.60;99.90;;;;;;4839346;29;20065;-85
2021/01/22 04:58:37;;;;;;;2.08;1.90;;;2.60;99.90;;;;;;4824292;29;20555;-87
2021/01/22 05:01:07;;;;;;;8.82;2.80;;;;;;;;;;4837680;29;20049;-86
2021/01/22 05:03:35;;;;;;;3.85;2.85;;;;;;;;;;4856207;29;20065;-87
2021/01/22 05:06:05;;;;;;;7.35;3.30;;;;;;;;;;4853306;29;20058;-87
2021/01/22 05:08:34;;;;;;;5.78;3.42;;;;;;;;;;4851327;29;20050;-92
2021/01/22 05:11:04;;;;;;;4.47;2.80;;;;;;;;;;4821671;29;20073;-86
2021/01/22 05:13:33;;;;;;;8.27;3.38;;;;;;;;;;4817881;29;20062;-88
2021/01/22 05:16:09;;;;;;;5.72;2.90;;;2.90;99.90;;;;;;4831817;29;20062;-85
2021/01/22 05:18:38;;;;;;;8.45;3.67;;;;;;;;;;4853203;29;20435;-85
2021/01/22 05:21:11;;;;;;;11.02;4.90;;;2.90;99.90;;;;;;4852435;29;20072;-86
2021/01/22 05:23:44;;;;;;;2.83;2.47;;;;;;;;;;4854511;29;20636;-85
2021/01/22 05:26:18;;;;;;;11.23;3.72;;;2.80;99.90;;;;;;4838611;29;20064;-87
2021/01/22 05:28:53;;;;;;;4.90;2.97;;;;;;;;;;4855027;29;20058;-90
2021/01/22 05:31:31;;;;;;;7.20;2.63;;;2.70;99.90;;;;;;4854652;29;20058;-87
2021/01/22 05:34:00;;;;;;;2.47;2.20;;;2.60;99.90;;;;;;4849098;29;20301;-89
2021/01/22 05:36:33;;;;;;;5.22;2.75;;;;;;;;;;4832276;29;20069;-84
2021/01/22 05:39:03;;;;;;;8.35;2.72;;;2.50;99.90;;;;;;4819551;29;20061;-84
2021/01/22 05:41:32;;;;;;;10.40;3.88;;;;;;;;;;4849929;29;20144;-85
2021/01/22 05:44:02;;;;;;;5.40;2.63;;;;;;;;;;4833896;29;20046;-83
2021/01/22 05:46:33;;;;;;;;;;;2.50;99.90;;;;;;4854220;29;20053;-86
2021/01/22 05:49:12;;;;;;;7.18;3.00;;;2.60;99.90;;;;;;4850984;29;19928;-88
2021/01/22 05:51:45;;;;;;;11.82;4.07;;;;;;;;;;4803102;29;20655;-87
2021/01/22 05:54:36;;;;;;;12.38;3.75;;;2.60;99.90;;;;;;4821329;29;20078;-85
2021/01/22 05:57:05;;;;;;;8.85;3.83;;;2.70;99.90;;;;;;4855004;29;20058;-86
2021/01/22 05:59:36;;;;;;;9.43;3.75;;;;;;;;;;4853314;29;20050;-91
2021/01/22 06:02:26;;;;;;;11.50;3.75;;;2.50;99.90;;;;;;4851609;29;20400;-86
2021/01/22 06:05:20;;;;;;;12.00;3.17;;;2.50;99.90;;;;;;4839292;29;20419;-85
2021/01/22 06:08:04;;;;;;;7.60;3.78;;;;;;;;;;4852744;29;20058;-86
2021/01/22 06:10:39;;;;;;;5.97;4.38;;;2.50;99.90;;;;;;4836516;29;20325;-85
2021/01/22 06:13:12;;;;;;;12.38;5.80;;;2.60;99.90;;;;;;4854485;29;20058;-90
2021/01/22 06:15:46;;;;;;;8.00;3.95;;;2.40;99.90;;;;;;4851947;29;20057;-87
2021/01/22 06:18:16;;;;;;;4.05;3.35;;;2.50;99.90;;;;;;4854056;29;20061;-88
2021/01/22 06:20:44;;;;;;;9.20;3.97;;;;;;;;;;4837611;29;20053;-84
2021/01/22 06:23:13;;;;;;;14.15;4.00;;;;;;;;;;4854413;29;20056;-86
2021/01/22 06:25:47;;;;;;;11.85;4.43;;;2.60;99.90;;;;;;4850131;29;20054;-86
2021/01/22 06:28:20;;;;;;;8.00;4.78;;;2.50;99.90;;;;;;4837073;29;20217;-89
2021/01/22 06:30:54;;;;;;;8.88;3.80;;;2.40;99.90;;;;;;4824577;29;20050;-83
2021/01/22 06:33:25;;;;;;;9.52;3.90;;;;;;;;;;4830980;29;20070;-89
2021/01/22 06:35:55;;;;;;;14.95;4.32;;;2.50;99.90;;;;;;4842102;29;20054;-88
2021/01/22 06:38:23;;;;;;;12.30;5.72;;;;;;;;;;4821369;29;20235;-89
2021/01/22 06:40:52;;;;;;;10.75;3.95;;;;;;;;;;4852635;29;20050;-91
2021/01/22 06:43:24;;;;;;;16.60;4.85;;;;;;;;;;4840233;29;20503;-86
2021/01/22 06:46:06;;;;;;;10.13;4.60;;;2.10;99.90;;;;;;4839709;29;20045;-86
2021/01/22 06:48:55;;;;;;;13.00;4.45;;;2.20;99.90;;;;;;4854366;29;20065;-87
2021/01/22 06:51:25;;;;;;;12.20;4.30;;;2.20;99.90;;;;;;4839952;29;20065;-91
2021/01/22 06:54:05;;;;;;;;;;;2.10;99.90;;;;;;4803291;29;20054;-88
2021/01/22 06:56:33;;;;;;;13.05;5.38;;;2.20;99.90;;;;;;4853179;29;19928;-90
2021/01/22 06:59:28;;;;;;;17.88;6.28;;;2.10;99.90;;;;;;4832754;29;20069;-87
2021/01/22 07:01:58;;;;;;;10.65;5.40;;;;;;;;;;4833986;29;20065;-85
2021/01/22 07:04:42;;;;;;;9.32;4.05;;;;;;;;;;4843722;29;20723;-87
2021/01/22 07:07:10;;;;;;;11.63;5.03;;;;;;;;;;4847081;29;20054;-88
2021/01/22 07:09:47;;;;;;;13.98;6.00;;;;;;;;;;4847068;29;20065;-86
2021/01/22 07:12:16;;;;;;;13.30;5.28;;;2.00;99.90;;;;;;4847398;29;20061;-86
2021/01/22 07:14:46;;;;;;;12.02;6.07;;;2.00;99.90;;;;;;4846440;29;20084;-92
2021/01/22 07:17:17;;;;;;;14.07;5.00;;;2.10;99.90;;;;;;4833252;29;20060;-87
2021/01/22 07:19:51;;;;;;;13.05;6.28;;;2.00;99.90;;;;;;4845400;29;20062;-89
2021/01/22 07:22:23;;;;;;;15.20;5.45;;;;;;;;;;4832480;29;20066;-87
2021/01/22 07:24:57;;;;;;;12.68;4.95;;;;;;;;;;4852187;29;20054;-86
2021/01/22 07:27:48;;;;;;;27.17;6.00;;;2.00;99.90;;;;;;4836603;29;20057;-86
2021/01/22 07:30:41;;;;;;;12.90;5.22;;;1.90;99.90;;;;;;4823711;29;20054;-87
2021/01/22 07:33:30;;;;;;;9.98;6.15;;;;;;;;;;4793450;29;20066;-85
2021/01/22 07:36:04;;;;;;;10.98;5.25;;;;;;;;;;4820856;29;20082;-86
2021/01/22 07:38:33;;;;;;;10.48;5.57;;;2.00;99.90;;;;;;4844677;24;20073;-85
2021/01/22 07:41:01;;;;;;;20.67;6.65;;;;;;;;;;4851114;29;20073;-85
2021/01/22 07:43:31;;;;;;;23.25;6.65;;;;;;;;;;4834437;29;20054;-88
2021/01/22 07:46:10;;;;;;;14.48;5.68;;;1.90;99.90;;;;;;4848752;29;20060;-85
2021/01/22 07:48:52;;;;;;;19.27;5.97;;;;;;;;;;5109725;27;20361;-86
2021/01/22 07:51:38;;;;;;;13.82;4.90;;;1.80;99.90;;;;;;5038666;28;20041;-84
2021/01/22 07:54:08;;;;;;;16.70;5.57;;;;;;;;;;5048583;28;20063;-88
2021/01/22 07:56:45;;;;;;;8.95;4.95;;;;;;;;;;5071269;28;20052;-90
2021/01/22 07:59:18;;;;;;;19.02;5.47;;;;;;;;;;5068291;28;20064;-87
2021/01/22 08:01:48;;;;;;;13.38;6.15;;;;;;;;;;5058391;28;20495;-87
2021/01/22 08:04:36;;;;;;;16.23;6.63;;;;;;;;;;5052003;28;20045;-88
2021/01/22 08:07:04;;;;;;;16.50;5.40;;;;;;;;;;5049518;28;20048;-89
2021/01/22 08:09:39;;;;;;;23.23;6.20;;;;;;;;;;5048648;28;20057;-88
2021/01/22 08:12:13;;;;;;;14.88;7.35;;;;;;;;;;5047663;28;20048;-90
2021/01/22 08:14:45;;;;;;;17.52;6.65;;;;;;;;;;5080656;28;20056;-89
2021/01/22 08:17:15;;;;;;;11.63;6.85;;;;;;;;;;5043791;28;20049;-90
2021/01/22 08:19:46;;;;;;;28.42;6.63;;;;;;;;;;5042326;28;20053;-88
2021/01/22 08:22:15;;;;;;;20.70;5.80;;;;;;;;;;5065627;28;20049;-86
2021/01/22 08:24:49;;;;;;;15.60;6.47;;;1.90;99.90;;;;;;5069293;28;20405;-88
2021/01/22 08:27:25;;;;;;;18.10;7.95;;;;;;;;;;5059701;28;20041;-86
2021/01/22 08:30:10;;;;;;;16.73;7.97;;;;;;;;;;5072213;28;20400;-86
2021/01/22 08:32:42;;;;;;;16.67;8.15;;;;;;;;;;5022795;23;20415;-90
2021/01/22 08:35:16;;;;;;;18.48;8.02;;;;;;;;;;5002986;28;20058;-92
2021/01/22 08:38:04;;;;;;;21.60;9.02;;;1.90;99.90;;;;;;5020714;28;20050;-88
2021/01/22 08:40:38;;;;;;;23.30;8.30;;;;;;;;;;5021577;28;20034;-91
2021/01/22 08:43:15;;;;;;;16.25;7.90;;;;;;;;;;5020640;28;20042;-86
2021/01/22 08:46:06;;;;;;;16.60;7.03;;;2.00;99.90;;;;;;5008118;28;20065;-87
2021/01/22 08:48:45;;;;;;;22.10;7.85;;;1.90;99.90;;;;;;5024481;28;20104;-88
2021/01/22 08:51:29;;;;;;;15.60;6.50;;;2.00;99.90;;;;;;5066491;22;20041;-92
2021/01/22 08:54:38;;;;;;;16.25;7.32;;;;;;;;;;5062539;28;20048;-87
2021/01/22 08:57:20;;;;;;;17.13;6.95;;;;;;;;;;5084697;28;20051;-89
2021/01/22 08:59:59;;;;;;;16.67;7.18;;;2.00;99.90;;;;;;5063980;28;20136;-88
2021/01/22 09:02:36;;;;;;;22.15;8.52;;;;;;;;;;5061933;28;20044;-87
2021/01/22 09:05:19;;;;;;;19.88;6.80;;;;;;;;;;5060040;28;20056;-87
2021/01/22 09:08:12;;;;;;;14.05;6.07;;;2.00;99.90;;;;;;5042615;28;20054;-89
2021/01/22 09:10:46;;;;;;;16.75;7.20;;;;;;;;;;5064701;28;20047;-89
2021/01/22 09:13:43;;;;;;;15.50;6.07;;;2.20;99.90;;;;;;5058632;28;20045;-88
2021/01/22 09:16:28;;;;;;;18.30;7.10;;;;;;;;;;5062680;28;20037;-87
2021/01/22 09:19:02;;;;;;;16.10;6.85;;;2.30;99.90;;;;;;5047326;28;20064;-86
2021/01/22 09:21:52;;;;;;;15.85;6.30;;;;;;;;;;5058153;28;20128;-86
2021/01/22 09:24:23;;;;;;;12.00;6.10;;;;;;;;;;5059135;28;20083;-88
2021/01/22 09:26:58;;;;;;;11.85;6.32;;;;;;;;;;5054596;28;20053;-88
2021/01/22 09:29:29;;;;;;;19.23;6.30;;;;;;;;;;5067542;28;20059;-88
2021/01/22 09:32:08;;;;;;;12.70;5.35;;;;;;;;;;5051856;23;20063;-88
2021/01/22 09:34:43;;;;;;;13.68;5.88;;;;;;;;;;5052080;22;20049;-88
2021/01/22 09:37:13;;;;;;;18.85;7.38;;;;;;;;;;5035580;28;20045;-88
2021/01/22 09:39:53;;;;;;;20.10;6.13;;;;;;;;;;5051072;23;20063;-89
2021/01/22 09:42:34;;;;;;;16.02;6.97;;;;;;;;;;5036475;28;20049;-84
2021/01/22 09:45:08;;;;;;;15.77;7.93;;;;;;;;;;5041656;28;20049;-87
2021/01/22 09:47:48;;;;;;;19.75;8.05;;;3.00;99.90;;;;;;5036846;22;20052;31
2021/01/22 09:50:23;;;;;;;18.95;7.47;;;;;;;;;;5011437;28;20050;-87
2021/01/22 09:53:19;;;;;;;18.23;7.32;;;;;;;;;;4999762;28;20050;-87
2021/01/22 09:56:04;;;;;;;12.68;5.45;;;;;;;;;;4997872;28;20042;-87
2021/01/22 09:59:22;;;;;;;30.83;8.13;;;;;;;;;;5013246;28;20062;-87
2021/01/22 10:01:58;;;;;;;8.35;4.63;;;3.50;99.90;;;;;;4990919;28;20030;-87
2021/01/22 10:04:35;;;;;;;18.08;7.55;;;;;;;;;;5028049;23;20045;-85
2021/01/22 10:07:09;;;;;;;15.68;7.45;;;;;;;;;;5023934;28;20057;-89
2021/01/22 10:09:41;;;;;;;18.98;6.13;;;;;;;;;;5025218;28;20056;-88
2021/01/22 10:12:13;;;;;;;11.63;5.38;;;;;;;;;;4988503;28;20050;-88
2021/01/22 10:15:08;;;;;;;25.05;5.93;;;3.80;99.90;;;;;;5039617;23;20064;-85
2021/01/22 10:17:42;;;;;;;9.80;4.95;;;;;;;;;;5076792;23;20045;-88
2021/01/22 10:20:11;;;;;;;20.00;5.97;;;3.80;99.90;;;;;;4999898;28;20068;-88
2021/01/22 10:23:02;;;;;;;11.55;5.22;;;;;;;;;;5008193;28;20049;-87
2021/01/22 10:25:34;;;;;;;20.02;5.70;;;;;;;;;;5027212;28;20052;-87
2021/01/22 10:28:06;;;;;;;9.25;5.25;;;;;;;;;;5005269;28;20038;-86
2021/01/22 10:30:43;;;;;;;18.00;4.63;;;;;;;;;;5024573;28;20066;-88
2021/01/22 10:33:12;;;;;;;10.75;4.40;;;;;;;;;;5026621;28;20060;-87
2021/01/22 10:35:40;;;;;;;15.38;5.10;;;;;;;;;;5020766;28;20060;-88
2021/01/22 10:38:16;;;;;;;13.95;6.15;;;;;;;;;;5023557;28;20057;-88
2021/01/22 10:40:49;;;;;;;15.05;6.38;;;;;;;;;;4997474;28;20045;-88
2021/01/22 10:43:26;;;;;;;11.23;5.10;;;;;;;;;;5029308;28;20050;-90
2021/01/22 10:45:59;;;;;;;10.43;4.80;;;;;;;;;;5014137;28;20060;-89
2021/01/22 10:48:35;;;;;;;17.88;5.32;;;;;;;;;;5006589;28;20282;-88
2021/01/22 10:51:14;;;;;;;13.32;4.72;;;4.80;99.90;;;;;;5027495;28;20053;-89
2021/01/22 10:53:52;;;;;;;16.77;5.85;;;4.80;99.90;;;;;;5010200;28;20705;-90
2021/01/22 10:56:20;;;;;;;13.75;4.70;;;;;;;;;;5014369;28;20046;-90
2021/01/22 10:58:52;;;;;;;14.18;5.22;;;4.90;99.90;;;;;;5026742;28;20069;-88
2021/01/22 11:01:21;;;;;;;11.80;4.60;;;;;;;;;;5025472;28;20052;-89
2021/01/22 11:03:55;;;;;;;12.93;5.35;;;;;;;;;;5024994;28;20050;-88
2021/01/22 11:06:28;;;;;;;10.18;4.57;;;;;;;;;;5033435;28;20042;-86
2021/01/22 11:08:56;;;;;;;12.70;4.38;;;;;;;;;;5000801;28;20065;-88
2021/01/22 11:11:25;;;;;;;15.38;4.88;;;;;;;;;;5005862;28;20052;-87
2021/01/22 11:14:13;;;;;;;14.85;4.82;;;;;;;;;;5004822;28;20061;-89
2021/01/22 11:16:41;;;;;;;15.00;4.60;;;;;;;;;;5021053;28;20050;-90
2021/01/22 11:19:17;;;;;;;20.20;5.60;;;;;;;;;;5008331;28;20046;-86
2021/01/22 11:21:52;;;;;;;14.35;5.55;;;;;;;;;;5007644;28;20050;-86
2021/01/22 11:24:27;;;;;;;15.45;6.57;;;5.50;99.90;;;;;;4978803;28;20537;-87
2021/01/22 11:26:59;;;;;;;14.00;5.38;;;;;;;;;;4983977;28;20070;-85
2021/01/22 11:29:29;;;;;;;16.15;4.93;;;;;;;;;;4946279;28;20049;-88
2021/01/22 11:31:59;;;;;;;12.45;4.30;;;;;;;;;;4990357;28;20059;-88
2021/01/22 11:34:28;;;;;;;15.25;4.28;;;;;;;;;;4978158;28;20038;-86
2021/01/22 11:37:00;;;;;;;;;;;5.70;99.90;;;;;;5001701;28;20058;-87
2021/01/22 11:39:30;;;;;;;17.92;4.53;;;;;;;;;;4948755;28;19932;-86
2021/01/22 11:41:59;;;;;;;13.40;4.07;;;;;;;;;;5007630;28;20052;-87
2021/01/22 11:44:33;;;;;;;12.05;5.55;;;;;;;;;;4998863;28;20042;-85
2021/01/22 11:47:04;;;;;;;11.38;5.15;;;;;;;;;;5004362;28;20035;-85
2021/01/22 11:49:46;;;;;;;13.27;4.50;;;;;;;;;;4974151;28;20046;-86
2021/01/22 11:52:13;;;;;;;19.90;4.30;;;;;;;;;;4972601;28;20042;-86
2021/01/22 11:54:47;;;;;;;13.25;4.45;;;;;;;;;;5017161;23;20057;-87
2021/01/22 11:57:16;;;;;;;11.80;5.35;;;;;;;;;;5036226;28;20038;-87
2021/01/22 11:59:46;;;;;;;10.77;4.05;;;;;;;;;;5032737;28;20052;-87
2021/01/22 12:02:14;;;;;;;15.27;4.65;;;;;;;;;;5029467;28;20145;-88
2021/01/22 12:04:42;;;;;;;7.07;4.07;;;;;;;;;;5032139;28;20049;-86
2021/01/22 12:07:13;;;;;;;13.00;4.80;;;;;;;;;;4340775;28;10000311;-86
2021/01/22 12:09:43;;;;;;;8.18;4.88;;;;;;;;;;5038245;28;20163;-86
2021/01/22 12:12:15;;;;;;;13.60;3.67;;;;;;;;;;5030934;28;20417;-85
2021/01/22 12:14:47;;;;;;;16.58;3.75;;;;;;;;;;5033248;28;20037;-86
2021/01/22 12:17:17;;;;;;;11.80;5.88;;;6.40;99.90;;;;;;5021228;28;20056;-85
2021/01/22 12:19:50;;;;;;;10.02;5.15;;;;;;;;;;5027776;28;20060;-86
2021/01/22 12:22:25;;;;;;;17.33;3.58;;;;;;;;;;5036082;28;20046;-86
2021/01/22 12:24:56;;;;;;;12.23;4.38;;;;;;;;;;5022337;28;20057;-87
2021/01/22 12:27:29;;;;;;;10.43;3.25;;;;;;;;;;5053747;28;20057;-86
2021/01/22 12:30:02;;;;;;;7.72;4.78;;;;;;;;;;5031534;28;20059;-86
2021/01/22 12:32:39;;;;;;;9.75;2.95;;;;;;;;;;5038683;28;20061;-85
2021/01/22 12:35:08;;;;;;;13.63;4.43;;;;;;;;;;5036006;28;20080;-85
2021/01/22 12:37:38;;;;;;;13.25;2.95;;;;;;;;;;5044461;28;20052;-86
2021/01/22 12:40:07;;;;;;;20.38;4.22;;;6.90;99.90;;;;;;5040542;28;20041;-85
2021/01/22 12:42:47;;;;;;;10.43;3.83;;;;;;;;;;5030264;28;20062;-84
2021/01/22 12:45:31;;;;;;;10.23;3.10;;;;;;;;;;5049896;28;20067;-85
2021/01/22 12:48:20;;;;;;;11.60;4.20;;;;;;;;;;5042891;28;20433;-85
2021/01/22 12:51:10;;;;;;;12.60;3.63;;;;;;;;;;5033987;28;20254;-87
2021/01/22 12:53:48;;;;;;;13.68;3.42;;;;;;;;;;5051407;28;20060;-86
2021/01/22 12:56:34;;;;;;;19.60;3.75;;;;;;;;;;5026519;28;20057;-87
2021/01/22 12:59:07;;;;;;;9.98;3.00;;;;;;;;;;5027177;23;20388;-86
2021/01/22 13:01:39;;;;;;;13.82;3.33;;;;;;;;;;5019155;28;20054;-86
2021/01/22 13:04:09;;;;;;;;;;;7.50;99.90;;;;;;5005634;28;20073;-85
2021/01/22 13:06:56;;;;;;;8.07;2.92;;;;;;;;;;5024681;28;19928;-86
2021/01/22 13:09:26;;;;;;;13.32;4.15;;;;;;;;;;5042104;28;20047;-85
2021/01/22 13:12:14;;;;;;;18.77;4.88;;;;;;;;;;5012800;28;20050;-86
2021/01/22 13:14:46;;;;;;;5.20;2.78;;;;;;;;;;5040686;28;20054;-86
2021/01/22 13:17:27;;;;;;;11.98;4.25;;;;;;;;;;5053446;22;20034;-86
2021/01/22 13:20:03;;;;;;;5.75;3.50;;;;;;;;;;5031055;28;20056;-87
2021/01/22 13:22:33;;;;;;;12.40;3.65;;;;;;;;;;5020368;28;20056;-85
2021/01/22 13:25:08;;;;;;;6.60;2.55;;;7.70;99.90;;;;;;5029403;28;20046;-86
2021/01/22 13:27:38;;;;;;;15.50;2.65;;;;;;;;;;5027726;28;20060;-86
2021/01/22 13:30:13;;;;;;;;;;;7.70;99.90;;;;;;5033723;28;20042;-86
2021/01/22 13:32:43;;;;;;;9.10;3.33;;;;;;;;;;5040643;23;19922;-87
2021/01/22 13:35:16;;;;;;;6.00;2.58;;;;;;;;;;5043068;23;20055;-85
2021/01/22 13:37:51;;;;;;;9.15;2.80;;;;;;;;;;4983917;28;20442;-87
2021/01/22 13:40:24;;;;;;;13.07;2.85;;;;;;;;;;4996099;28;20050;-85
2021/01/22 13:42:55;;;;;;;7.57;2.75;;;;;;;;;;5000795;28;20061;-86
2021/01/22 13:45:30;;;;;;;4.95;2.88;;;;;;;;;;4992254;28;20042;-85
2021/01/22 13:48:04;;;;;;;11.73;4.03;;;;;;;;;;4986186;28;20057;-85
2021/01/22 13:50:41;;;;;;;7.57;2.75;;;;;;;;;;4988662;28;20051;-87
2021/01/22 13:53:09;;;;;;;21.95;4.57;;;;;;;;;;4974358;28;20049;-87
2021/01/22 13:56:02;;;;;;;15.82;4.35;;;8.00;99.90;;;;;;4988913;28;20050;-87
2021/01/22 13:58:36;;;;;;;7.70;2.30;;;;;;;;;;5018534;28;20042;-87
2021/01/22 14:01:12;;;;;;;4.28;2.28;;;;;;;;;;5001966;28;20047;-87
2021/01/22 14:03:44;;;;;;;8.07;3.97;;;;;;;;;;4990641;28;20050;-87
2021/01/22 14:06:18;;;;;;;14.30;3.63;;;8.00;99.90;;;;;;5001649;28;20058;-86
2021/01/22 14:08:51;;;;;;;11.35;3.00;;;;;;;;;;4676570;23;10001866;-87
2021/01/22 14:11:21;;;;;;;15.23;4.28;;;;;;;;;;5061932;28;20048;-85
2021/01/22 14:13:59;;;;;;;12.00;3.58;;;;;;;;;;5041435;28;20045;-87
2021/01/22 14:16:28;;;;;;;7.70;2.58;;;;;;;;;;5038288;28;20049;-87
2021/01/22 14:19:04;;;;;;;9.52;2.97;;;;;;;;;;5052383;28;20053;-89
2021/01/22 14:21:38;;;;;;;25.65;4.03;;;;;;;;;;5045931;28;20064;-90
2021/01/22 14:24:10;;;;;;;8.10;2.80;;;;;;;;;;5051240;28;20045;-90
2021/01/22 14:26:42;;;;;;;15.85;3.38;;;;;;;;;;5052949;28;20067;-89
2021/01/22 14:29:17;;;;;;;4.47;2.17;;;;;;;;;;5053241;28;20060;-91
2021/01/22 14:31:48;;;;;;;9.25;3.97;;;;;;;;;;5032745;28;20057;-90
2021/01/22 14:34:19;;;;;;;7.07;2.60;;;;;;;;;;5021163;28;20056;-90
2021/01/22 14:36:47;;;;;;;18.00;4.55;;;;;;;;;;5028367;28;20053;-90
2021/01/22 14:39:21;;;;;;;12.93;3.67;;;;;;;;;;5032047;28;20038;-91
2021/01/22 14:41:58;;;;;;;5.20;2.67;;;;;;;;;;5044144;28;20060;-88